LPPTGCLP

Guest
Details From LPPT - Lisboa
To GCLP - Gran Canaria
Flight Number -
Tags decoded
Created
Modified
Stats Distance 735 nm / 1,361 km
Max Altitude 0 ft / 0 m
Waypoints 8
Social Downloads 1
Likes 0
Share VATSIM

Download

Looking for another format? Having issues loading an existing format? Contact us
Advertisement - Login to hide

Notes

Requested: LPPT NAKOS UZ4 BAROK UN873 SAMAR GCLP

Route

LPPT NAKOS UZ4 BAROK UN873 SAMAR GCLP

ID Type Via Altitude Latitude Longitude Leg Dist Tot Dist Heading (true) Name
O LPPT APT - 0 ft / 0 m 38.77856˚ -9.13515˚ - 0 nm - Lisboa
NAKOS FIX - 0 ft / 0 m 38.00000˚ -9.33444˚ 47 nm 47 nm 191° / 191° -
BAROK FIX UZ4 (AWY-HI) 0 ft / 0 m 35.96667˚ -10.02333˚ 126 nm 174 nm 195° / 195° -
BENTU FIX UN873 (AWY-HI) 0 ft / 0 m 34.62833˚ -11.24361˚ 100 nm 274 nm 217° / 216° -
NEVEL FIX UN873 (AWY-HI) 0 ft / 0 m 32.99750˚ -12.67167˚ 121 nm 395 nm 216° / 216° -
MITLA FIX UN873 (AWY-HI) 0 ft / 0 m 31.30833˚ -14.08222˚ 124 nm 519 nm 216° / 215° -
SAMAR FIX UN873 (AWY-HI) 0 ft / 0 m 30.89972˚ -14.41556˚ 29 nm 549 nm 215° / 215° -
O GCLP APT - 0 ft / 0 m 27.93154˚ -15.38559˚ 185 nm 735 nm 196° / 196° Gran Canaria

Altitude Profile

Advertisement - Login to hide

Weather


0- 5 10 15 20 25 30 35+ Temperature / ° C

Clouds and Precipitation
Forecast for 2017-12-14 06:00 UTC. Updated an hour ago

Ground ~20,000 ft ~40,000 ft Winds

LPPT

Details ICAO LPPT (LIS)
Name Lisboa
Region Portugal
Timezone Europe/Lisbon (UTC+0.0)
Stats Elevation 374 ft / 114 m (AMSL)
Location 38.778559° -9.135146°
Runways 2
Magnetic Variation 2.364° W

METAR

LPPT 140230Z 22006KT 6000 FEW010 SCT022 13/13 Q1026

Decode

TAF

TAF LPPT 132300Z 1400/1506 VRB03KT 6000 SCT006 BKN012 TEMPO 1400/1410 3000 BR BKN005 PROB30 TEMPO 1403/1409 0800 DZ FG BKN001 BECMG 1410/1412 27008KT 9999 SCT012 BKN025 PROB40 TEMPO 1412/1506 3000 -RADZ BR SCT004 BKN008

Decode

Departure Runways

ID Width Length Bearing (true) Bearing (mag) Surface Threshold Offset Overrun Length
03 148 ft / 45 m 12,518 ft / 3,815 m 22.70° 25.06° Asphalt 296 ft / 90 m 0 ft / 0 m
17 148 ft / 45 m 7,922 ft / 2,415 m 168.38° 170.74° Asphalt 0 ft / 0 m 0 ft / 0 m
21 148 ft / 45 m 12,518 ft / 3,815 m 202.72° 205.08° Asphalt 1,969 ft / 600 m 0 ft / 0 m
35 148 ft / 45 m 7,922 ft / 2,415 m 348.38° 350.74° Asphalt 492 ft / 150 m 0 ft / 0 m

GCLP

Details ICAO GCLP (LPA)
Name Gran Canaria
Region Canary Islands
Timezone Atlantic/Canary (UTC+0.0)
Stats Elevation 77 ft / 23 m (AMSL)
Location 27.931544° -15.385592°
Runways 2
Magnetic Variation 4.685° W

METAR

GCLP 140230Z 35013KT 9999 FEW025 SCT040 17/12 Q1025 NOSIG

Decode

TAF

TAF GCLP 140200Z 1403/1503 03015KT 9999 SCT030 TX22/1414Z TN16/1406Z= TAF AMD KDOV 140220Z 1402/1506 21009KT 2400 -SN OVC015 620159 QNH2952INS BECMG 1406/1407 21012KT 9999 NSW BKN040 620409 QNH2952INS BECMG 1414/1415 29015G25KT 9999 FEW030 FEW180 QNH2967INS BECMG 1420/1421 32012KT 9999 SCT150 QNH2988INS TX05/1416Z TNM03/1402Z

Decode

Destination Runways

ID Width Length Bearing (true) Bearing (mag) Surface Threshold Offset Overrun Length
03L 148 ft / 45 m 10,203 ft / 3,110 m 21.33° 26.01° Asphalt 0 ft / 0 m 656 ft / 200 m
03R 148 ft / 45 m 10,200 ft / 3,109 m 21.32° 26.00° Asphalt 0 ft / 0 m 673 ft / 205 m
21L 148 ft / 45 m 10,200 ft / 3,109 m 201.33° 206.01° Asphalt 0 ft / 0 m 689 ft / 210 m
21R 148 ft / 45 m 10,203 ft / 3,110 m 201.33° 206.01° Asphalt 0 ft / 0 m 755 ft / 230 m

Approach Navaids

Runway Type Ident Frequency Range Bearing (true) Bearing (mag) Slope Elevation
03L Localiser ILP 109.90 MHz 18 nm / 33 km 21.33° 26.02° - 77 ft / 23 m (AMSL)
03L Glidescope ILP 109.90 MHz 10 nm / 19 km 21.33° 26.02° 3.00° 102 ft / 31 m (AMSL)
03L DME ILP 109.90 MHz 18 nm / 33 km - - - 102 ft / 31 m (AMSL)
21R Localiser RLP 110.70 MHz 18 nm / 33 km 201.32° 206.01° - 77 ft / 23 m (AMSL)
21R Glidescope RLP 110.70 MHz 10 nm / 19 km 201.33° 206.02° 3.00° 77 ft / 23 m (AMSL)
21R DME RLP 110.70 MHz 18 nm / 33 km - - - 57 ft / 17 m (AMSL)

Popular Alternatives